sensor_id;sensor_type;location;lat;lon;timestamp;temperature;humidity
2621;DHT22;1320;48.128;11.592;2023-07-13T00:02:15;20.10;99.90
2621;DHT22;1320;48.128;11.592;2023-07-13T00:04:41;20.10;99.90
2621;DHT22;1320;48.128;11.592;2023-07-13T00:07:08;20.10;99.90
2621;DHT22;1320;48.128;11.592;2023-07-13T00:09:34;20.20;99.90
2621;DHT22;1320;48.128;11.592;2023-07-13T00:11:59;20.20;99.90
2621;DHT22;1320;48.128;11.592;2023-07-13T00:14:27;20.20;99.90
2621;DHT22;1320;48.128;11.592;2023-07-13T00:16:53;20.20;99.90
2621;DHT22;1320;48.128;11.592;2023-07-13T00:19:18;20.30;99.90
2621;DHT22;1320;48.128;11.592;2023-07-13T00:21:44;20.30;99.90
2621;DHT22;1320;48.128;11.592;2023-07-13T00:24:13;20.30;99.90
2621;DHT22;1320;48.128;11.592;2023-07-13T00:26:40;20.30;99.90
2621;DHT22;1320;48.128;11.592;2023-07-13T00:29:06;20.30;99.90
2621;DHT22;1320;48.128;11.592;2023-07-13T00:31:34;20.30;99.90
2621;DHT22;1320;48.128;11.592;2023-07-13T00:34:01;20.20;99.90
2621;DHT22;1320;48.128;11.592;2023-07-13T00:36:26;20.30;99.90
2621;DHT22;1320;48.128;11.592;2023-07-13T00:38:52;20.30;99.90
2621;DHT22;1320;48.128;11.592;2023-07-13T00:41:18;20.30;99.90
2621;DHT22;1320;48.128;11.592;2023-07-13T00:43:44;20.20;99.90
2621;DHT22;1320;48.128;11.592;2023-07-13T00:48:39;20.20;99.90
2621;DHT22;1320;48.128;11.592;2023-07-13T00:51:05;20.20;99.90
2621;DHT22;1320;48.128;11.592;2023-07-13T00:53:32;20.20;99.90
2621;DHT22;1320;48.128;11.592;2023-07-13T00:55:58;20.20;99.90
2621;DHT22;1320;48.128;11.592;2023-07-13T00:58:25;20.20;99.90
2621;DHT22;1320;48.128;11.592;2023-07-13T01:00:51;20.20;99.90
2621;DHT22;1320;48.128;11.592;2023-07-13T01:03:18;20.30;99.90
2621;DHT22;1320;48.128;11.592;2023-07-13T01:05:47;20.20;99.90
2621;DHT22;1320;48.128;11.592;2023-07-13T01:08:13;20.30;99.90
2621;DHT22;1320;48.128;11.592;2023-07-13T01:10:39;20.30;99.90
2621;DHT22;1320;48.128;11.592;2023-07-13T01:13:07;20.40;99.90
2621;DHT22;1320;48.128;11.592;2023-07-13T01:15:44;20.40;99.90
2621;DHT22;1320;48.128;11.592;2023-07-13T01:18:15;20.50;99.90
2621;DHT22;1320;48.128;11.592;2023-07-13T01:20:50;20.50;99.90
2621;DHT22;1320;48.128;11.592;2023-07-13T01:23:16;20.50;99.90
2621;DHT22;1320;48.128;11.592;2023-07-13T01:25:41;20.50;99.90
2621;DHT22;1320;48.128;11.592;2023-07-13T01:28:08;20.50;99.90
2621;DHT22;1320;48.128;11.592;2023-07-13T01:30:39;20.50;99.90
2621;DHT22;1320;48.128;11.592;2023-07-13T01:33:06;20.50;99.90
2621;DHT22;1320;48.128;11.592;2023-07-13T01:35:33;20.50;99.90
2621;DHT22;1320;48.128;11.592;2023-07-13T01:37:59;20.50;99.90
2621;DHT22;1320;48.128;11.592;2023-07-13T01:40:27;20.50;99.90
2621;DHT22;1320;48.128;11.592;2023-07-13T01:42:52;20.50;99.90
2621;DHT22;1320;48.128;11.592;2023-07-13T01:45:18;20.50;99.90
2621;DHT22;1320;48.128;11.592;2023-07-13T01:47:44;20.50;99.90
2621;DHT22;1320;48.128;11.592;2023-07-13T01:50:10;20.50;99.90
2621;DHT22;1320;48.128;11.592;2023-07-13T01:52:35;20.50;99.90
2621;DHT22;1320;48.128;11.592;2023-07-13T01:55:01;20.40;99.90
2621;DHT22;1320;48.128;11.592;2023-07-13T01:57:28;20.40;99.90
2621;DHT22;1320;48.128;11.592;2023-07-13T01:59:53;20.40;99.90
2621;DHT22;1320;48.128;11.592;2023-07-13T02:02:19;20.40;99.90
2621;DHT22;1320;48.128;11.592;2023-07-13T02:04:45;20.40;99.90
2621;DHT22;1320;48.128;11.592;2023-07-13T02:07:11;20.40;99.90
2621;DHT22;1320;48.128;11.592;2023-07-13T02:09:37;20.40;99.90
2621;DHT22;1320;48.128;11.592;2023-07-13T02:12:03;20.50;99.90
2621;DHT22;1320;48.128;11.592;2023-07-13T02:14:29;20.50;99.90
2621;DHT22;1320;48.128;11.592;2023-07-13T02:16:54;20.50;99.90
2621;DHT22;1320;48.128;11.592;2023-07-13T02:19:20;20.50;99.90
2621;DHT22;1320;48.128;11.592;2023-07-13T02:21:46;20.60;99.90
2621;DHT22;1320;48.128;11.592;2023-07-13T02:24:12;20.60;99.90
2621;DHT22;1320;48.128;11.592;2023-07-13T02:26:43;20.60;99.90
2621;DHT22;1320;48.128;11.592;2023-07-13T02:29:09;20.60;99.90
2621;DHT22;1320;48.128;11.592;2023-07-13T02:31:35;20.60;99.90
2621;DHT22;1320;48.128;11.592;2023-07-13T02:34:01;20.60;99.90
2621;DHT22;1320;48.128;11.592;2023-07-13T02:36:28;20.60;99.90
2621;DHT22;1320;48.128;11.592;2023-07-13T02:38:54;20.60;99.90
2621;DHT22;1320;48.128;11.592;2023-07-13T02:41:19;20.70;99.90
2621;DHT22;1320;48.128;11.592;2023-07-13T02:43:45;20.70;99.90
2621;DHT22;1320;48.128;11.592;2023-07-13T02:46:11;20.70;99.90
2621;DHT22;1320;48.128;11.592;2023-07-13T02:48:38;20.70;99.90
2621;DHT22;1320;48.128;11.592;2023-07-13T02:51:04;20.70;99.90
2621;DHT22;1320;48.128;11.592;2023-07-13T02:53:30;20.70;99.90
2621;DHT22;1320;48.128;11.592;2023-07-13T02:55:56;20.70;99.90
2621;DHT22;1320;48.128;11.592;2023-07-13T02:58:22;20.60;99.90
2621;DHT22;1320;48.128;11.592;2023-07-13T03:00:48;20.60;99.90
2621;DHT22;1320;48.128;11.592;2023-07-13T03:03:16;20.60;99.90
2621;DHT22;1320;48.128;11.592;2023-07-13T03:05:43;20.60;99.90
2621;DHT22;1320;48.128;11.592;2023-07-13T03:08:15;20.40;99.90
2621;DHT22;1320;48.128;11.592;2023-07-13T03:10:41;20.20;99.90
2621;DHT22;1320;48.128;11.592;2023-07-13T03:13:07;20.10;99.90
2621;DHT22;1320;48.128;11.592;2023-07-13T03:15:33;19.90;99.90
2621;DHT22;1320;48.128;11.592;2023-07-13T03:17:58;19.80;99.90
2621;DHT22;1320;48.128;11.592;2023-07-13T03:20:24;19.70;99.90
2621;DHT22;1320;48.128;11.592;2023-07-13T03:22:49;19.60;99.90
2621;DHT22;1320;48.128;11.592;2023-07-13T03:25:15;19.60;99.90
2621;DHT22;1320;48.128;11.592;2023-07-13T03:27:41;19.50;99.90
2621;DHT22;1320;48.128;11.592;2023-07-13T03:30:07;19.50;99.90
2621;DHT22;1320;48.128;11.592;2023-07-13T03:32:33;19.50;99.90
2621;DHT22;1320;48.128;11.592;2023-07-13T03:34:59;19.50;99.90
2621;DHT22;1320;48.128;11.592;2023-07-13T03:37:24;19.40;99.90
2621;DHT22;1320;48.128;11.592;2023-07-13T03:39:52;19.30;99.90
2621;DHT22;1320;48.128;11.592;2023-07-13T03:42:18;19.30;99.90
2621;DHT22;1320;48.128;11.592;2023-07-13T03:44:44;19.30;99.90
2621;DHT22;1320;48.128;11.592;2023-07-13T03:47:16;19.20;99.90
2621;DHT22;1320;48.128;11.592;2023-07-13T03:49:41;19.20;99.90
2621;DHT22;1320;48.128;11.592;2023-07-13T03:52:07;19.10;99.90
2621;DHT22;1320;48.128;11.592;2023-07-13T03:54:32;19.10;99.90
2621;DHT22;1320;48.128;11.592;2023-07-13T03:56:58;19.00;99.90
2621;DHT22;1320;48.128;11.592;2023-07-13T03:59:24;19.00;99.90
2621;DHT22;1320;48.128;11.592;2023-07-13T04:01:49;19.00;99.90
2621;DHT22;1320;48.128;11.592;2023-07-13T04:04:15;19.00;99.90
2621;DHT22;1320;48.128;11.592;2023-07-13T04:06:41;19.00;99.90
2621;DHT22;1320;48.128;11.592;2023-07-13T04:09:06;19.00;99.90
2621;DHT22;1320;48.128;11.592;2023-07-13T04:11:32;19.00;99.90
2621;DHT22;1320;48.128;11.592;2023-07-13T04:13:59;19.00;99.90
2621;DHT22;1320;48.128;11.592;2023-07-13T04:16:25;19.00;99.90
2621;DHT22;1320;48.128;11.592;2023-07-13T04:18:51;19.00;99.90
2621;DHT22;1320;48.128;11.592;2023-07-13T04:21:21;19.00;99.90
2621;DHT22;1320;48.128;11.592;2023-07-13T04:23:47;18.90;99.90
2621;DHT22;1320;48.128;11.592;2023-07-13T04:26:13;18.90;99.90
2621;DHT22;1320;48.128;11.592;2023-07-13T04:28:38;18.90;99.90
2621;DHT22;1320;48.128;11.592;2023-07-13T04:31:04;18.90;99.90
2621;DHT22;1320;48.128;11.592;2023-07-13T04:33:30;18.90;99.90
2621;DHT22;1320;48.128;11.592;2023-07-13T04:35:56;18.90;99.90
2621;DHT22;1320;48.128;11.592;2023-07-13T04:38:24;18.90;99.90
2621;DHT22;1320;48.128;11.592;2023-07-13T04:40:50;18.90;99.90
2621;DHT22;1320;48.128;11.592;2023-07-13T04:43:16;19.00;99.90
2621;DHT22;1320;48.128;11.592;2023-07-13T04:45:42;19.00;99.90
2621;DHT22;1320;48.128;11.592;2023-07-13T04:48:08;19.00;99.90
2621;DHT22;1320;48.128;11.592;2023-07-13T04:50:36;19.00;99.90
2621;DHT22;1320;48.128;11.592;2023-07-13T04:53:02;19.00;99.90
2621;DHT22;1320;48.128;11.592;2023-07-13T04:55:29;19.00;99.90
2621;DHT22;1320;48.128;11.592;2023-07-13T04:57:57;18.90;99.90
2621;DHT22;1320;48.128;11.592;2023-07-13T05:00:24;18.90;99.90
2621;DHT22;1320;48.128;11.592;2023-07-13T05:02:50;18.90;99.90
2621;DHT22;1320;48.128;11.592;2023-07-13T05:05:16;18.90;99.90
2621;DHT22;1320;48.128;11.592;2023-07-13T05:07:42;18.90;99.90
2621;DHT22;1320;48.128;11.592;2023-07-13T05:10:08;19.00;99.90
2621;DHT22;1320;48.128;11.592;2023-07-13T05:12:34;19.00;99.90
2621;DHT22;1320;48.128;11.592;2023-07-13T05:15:01;19.10;99.90
2621;DHT22;1320;48.128;11.592;2023-07-13T05:17:26;19.10;99.90
2621;DHT22;1320;48.128;11.592;2023-07-13T05:19:53;19.20;99.90
2621;DHT22;1320;48.128;11.592;2023-07-13T05:22:19;19.20;99.90
2621;DHT22;1320;48.128;11.592;2023-07-13T05:24:50;19.30;99.90
2621;DHT22;1320;48.128;11.592;2023-07-13T05:27:16;19.30;99.90
2621;DHT22;1320;48.128;11.592;2023-07-13T05:29:41;19.40;99.90
2621;DHT22;1320;48.128;11.592;2023-07-13T05:32:07;19.40;99.90
2621;DHT22;1320;48.128;11.592;2023-07-13T05:34:33;19.40;99.90
2621;DHT22;1320;48.128;11.592;2023-07-13T05:36:58;19.50;99.90
2621;DHT22;1320;48.128;11.592;2023-07-13T05:39:24;19.50;99.90
2621;DHT22;1320;48.128;11.592;2023-07-13T05:41:51;19.50;99.90
2621;DHT22;1320;48.128;11.592;2023-07-13T05:44:17;19.60;99.90
2621;DHT22;1320;48.128;11.592;2023-07-13T05:46:44;19.60;99.90
2621;DHT22;1320;48.128;11.592;2023-07-13T05:49:09;19.60;99.90
2621;DHT22;1320;48.128;11.592;2023-07-13T05:51:35;19.70;99.90
2621;DHT22;1320;48.128;11.592;2023-07-13T05:54:01;19.70;99.90
2621;DHT22;1320;48.128;11.592;2023-07-13T05:56:26;19.70;99.90
2621;DHT22;1320;48.128;11.592;2023-07-13T05:58:52;19.80;99.90
2621;DHT22;1320;48.128;11.592;2023-07-13T06:01:19;19.80;99.90
2621;DHT22;1320;48.128;11.592;2023-07-13T06:03:46;19.90;99.90
2621;DHT22;1320;48.128;11.592;2023-07-13T06:06:12;20.00;99.90
2621;DHT22;1320;48.128;11.592;2023-07-13T06:08:38;20.00;99.90
2621;DHT22;1320;48.128;11.592;2023-07-13T06:13:29;20.10;99.90
2621;DHT22;1320;48.128;11.592;2023-07-13T06:15:55;20.10;99.90
2621;DHT22;1320;48.128;11.592;2023-07-13T06:18:21;20.20;99.90
2621;DHT22;1320;48.128;11.592;2023-07-13T06:20:46;20.20;99.90
2621;DHT22;1320;48.128;11.592;2023-07-13T06:23:12;20.30;99.90
2621;DHT22;1320;48.128;11.592;2023-07-13T06:25:38;20.30;99.90
2621;DHT22;1320;48.128;11.592;2023-07-13T06:28:03;20.30;99.90
2621;DHT22;1320;48.128;11.592;2023-07-13T06:30:29;20.40;99.90
2621;DHT22;1320;48.128;11.592;2023-07-13T06:32:56;20.50;99.90
2621;DHT22;1320;48.128;11.592;2023-07-13T06:35:21;20.60;99.90
2621;DHT22;1320;48.128;11.592;2023-07-13T06:37:47;20.60;99.90
2621;DHT22;1320;48.128;11.592;2023-07-13T06:40:13;20.70;99.90
2621;DHT22;1320;48.128;11.592;2023-07-13T06:42:38;20.80;99.90
2621;DHT22;1320;48.128;11.592;2023-07-13T06:45:04;20.90;99.90
2621;DHT22;1320;48.128;11.592;2023-07-13T06:47:30;20.80;99.90
2621;DHT22;1320;48.128;11.592;2023-07-13T06:49:56;20.80;99.90
2621;DHT22;1320;48.128;11.592;2023-07-13T06:52:21;20.90;99.90
2621;DHT22;1320;48.128;11.592;2023-07-13T06:54:47;20.90;99.90
2621;DHT22;1320;48.128;11.592;2023-07-13T06:57:12;21.00;99.90
2621;DHT22;1320;48.128;11.592;2023-07-13T06:59:38;21.10;99.90
2621;DHT22;1320;48.128;11.592;2023-07-13T07:02:04;21.10;99.90
2621;DHT22;1320;48.128;11.592;2023-07-13T07:04:30;21.10;99.90
2621;DHT22;1320;48.128;11.592;2023-07-13T07:06:55;21.20;99.90
2621;DHT22;1320;48.128;11.592;2023-07-13T07:09:21;21.20;99.90
2621;DHT22;1320;48.128;11.592;2023-07-13T07:11:47;21.30;99.90
2621;DHT22;1320;48.128;11.592;2023-07-13T07:14:12;21.30;99.90
2621;DHT22;1320;48.128;11.592;2023-07-13T07:16:38;21.30;99.90
2621;DHT22;1320;48.128;11.592;2023-07-13T07:19:03;21.40;99.90
2621;DHT22;1320;48.128;11.592;2023-07-13T07:21:29;21.50;99.90
2621;DHT22;1320;48.128;11.592;2023-07-13T07:23:56;21.50;99.90
2621;DHT22;1320;48.128;11.592;2023-07-13T07:26:22;21.50;99.90
2621;DHT22;1320;48.128;11.592;2023-07-13T07:28:48;21.50;99.90
2621;DHT22;1320;48.128;11.592;2023-07-13T07:31:13;21.60;99.90
2621;DHT22;1320;48.128;11.592;2023-07-13T07:33:39;21.60;99.90
2621;DHT22;1320;48.128;11.592;2023-07-13T07:36:05;21.60;99.90
2621;DHT22;1320;48.128;11.592;2023-07-13T07:38:30;21.50;99.90
2621;DHT22;1320;48.128;11.592;2023-07-13T07:40:56;21.40;99.90
2621;DHT22;1320;48.128;11.592;2023-07-13T07:43:22;21.50;99.90
2621;DHT22;1320;48.128;11.592;2023-07-13T07:45:48;21.50;99.90
2621;DHT22;1320;48.128;11.592;2023-07-13T07:48:13;21.40;99.90
2621;DHT22;1320;48.128;11.592;2023-07-13T07:50:39;21.40;99.90
2621;DHT22;1320;48.128;11.592;2023-07-13T07:53:06;21.40;99.90
2621;DHT22;1320;48.128;11.592;2023-07-13T07:55:35;21.40;99.90
2621;DHT22;1320;48.128;11.592;2023-07-13T07:58:01;21.40;99.90
2621;DHT22;1320;48.128;11.592;2023-07-13T08:00:27;21.40;99.90
2621;DHT22;1320;48.128;11.592;2023-07-13T08:02:55;21.40;99.90
2621;DHT22;1320;48.128;11.592;2023-07-13T08:05:21;21.40;99.90
2621;DHT22;1320;48.128;11.592;2023-07-13T08:07:47;21.40;99.90
2621;DHT22;1320;48.128;11.592;2023-07-13T08:10:12;21.30;99.90
2621;DHT22;1320;48.128;11.592;2023-07-13T08:12:39;21.20;99.90
2621;DHT22;1320;48.128;11.592;2023-07-13T08:15:09;21.10;99.90
2621;DHT22;1320;48.128;11.592;2023-07-13T08:17:35;21.10;99.90
2621;DHT22;1320;48.128;11.592;2023-07-13T08:20:01;21.00;99.90
2621;DHT22;1320;48.128;11.592;2023-07-13T08:22:27;20.90;99.90
2621;DHT22;1320;48.128;11.592;2023-07-13T08:24:53;20.90;99.90
2621;DHT22;1320;48.128;11.592;2023-07-13T08:27:25;20.80;99.90
2621;DHT22;1320;48.128;11.592;2023-07-13T08:29:52;20.80;99.90
2621;DHT22;1320;48.128;11.592;2023-07-13T08:32:18;20.70;99.90
2621;DHT22;1320;48.128;11.592;2023-07-13T08:34:44;20.70;99.90
2621;DHT22;1320;48.128;11.592;2023-07-13T08:37:10;20.80;99.90
2621;DHT22;1320;48.128;11.592;2023-07-13T08:39:35;20.80;99.90
2621;DHT22;1320;48.128;11.592;2023-07-13T08:42:36;20.80;99.90
2621;DHT22;1320;48.128;11.592;2023-07-13T08:45:22;20.80;99.90
2621;DHT22;1320;48.128;11.592;2023-07-13T08:48:02;20.70;99.90
2621;DHT22;1320;48.128;11.592;2023-07-13T08:50:32;20.70;99.90
2621;DHT22;1320;48.128;11.592;2023-07-13T08:53:02;20.70;99.90
2621;DHT22;1320;48.128;11.592;2023-07-13T08:55:34;20.80;99.90
2621;DHT22;1320;48.128;11.592;2023-07-13T08:58:12;20.80;99.90
2621;DHT22;1320;48.128;11.592;2023-07-13T09:04:07;21.10;99.90
2621;DHT22;1320;48.128;11.592;2023-07-13T09:12:45;21.30;99.90
2621;DHT22;1320;48.128;11.592;2023-07-13T09:15:41;21.40;99.90
2621;DHT22;1320;48.128;11.592;2023-07-13T09:20:54;21.50;99.90
2621;DHT22;1320;48.128;11.592;2023-07-13T09:23:23;21.50;99.90
2621;DHT22;1320;48.128;11.592;2023-07-13T09:25:58;21.60;99.90
2621;DHT22;1320;48.128;11.592;2023-07-13T09:28:32;21.70;99.90
2621;DHT22;1320;48.128;11.592;2023-07-13T09:31:04;21.90;99.90
2621;DHT22;1320;48.128;11.592;2023-07-13T09:33:31;22.00;99.90
2621;DHT22;1320;48.128;11.592;2023-07-13T09:35:58;22.10;99.90
2621;DHT22;1320;48.128;11.592;2023-07-13T09:38:29;22.30;99.90
2621;DHT22;1320;48.128;11.592;2023-07-13T09:41:28;22.30;99.90
2621;DHT22;1320;48.128;11.592;2023-07-13T09:44:11;22.40;99.90
2621;DHT22;1320;48.128;11.592;2023-07-13T09:46:38;22.40;99.90
2621;DHT22;1320;48.128;11.592;2023-07-13T09:49:04;22.40;98.70
2621;DHT22;1320;48.128;11.592;2023-07-13T09:51:30;22.30;99.60
2621;DHT22;1320;48.128;11.592;2023-07-13T09:53:56;22.30;99.40
2621;DHT22;1320;48.128;11.592;2023-07-13T09:56:26;22.30;99.10
2621;DHT22;1320;48.128;11.592;2023-07-13T09:58:52;22.20;99.20
2621;DHT22;1320;48.128;11.592;2023-07-13T10:01:32;22.30;99.20
2621;DHT22;1320;48.128;11.592;2023-07-13T10:03:59;22.50;99.80
2621;DHT22;1320;48.128;11.592;2023-07-13T10:06:24;22.70;99.90
2621;DHT22;1320;48.128;11.592;2023-07-13T10:08:52;22.90;99.10
2621;DHT22;1320;48.128;11.592;2023-07-13T10:13:54;23.30;99.40
2621;DHT22;1320;48.128;11.592;2023-07-13T10:16:24;23.50;98.80
2621;DHT22;1320;48.128;11.592;2023-07-13T10:18:55;23.80;98.80
2621;DHT22;1320;48.128;11.592;2023-07-13T10:21:23;24.10;96.60
2621;DHT22;1320;48.128;11.592;2023-07-13T10:23:56;24.40;96.10
2621;DHT22;1320;48.128;11.592;2023-07-13T10:26:27;24.80;97.30
2621;DHT22;1320;48.128;11.592;2023-07-13T10:28:58;25.30;97.40
2621;DHT22;1320;48.128;11.592;2023-07-13T10:31:24;25.80;94.50
2621;DHT22;1320;48.128;11.592;2023-07-13T10:33:50;26.40;93.20
2621;DHT22;1320;48.128;11.592;2023-07-13T10:36:40;26.70;91.40
2621;DHT22;1320;48.128;11.592;2023-07-13T10:39:20;26.80;88.70
2621;DHT22;1320;48.128;11.592;2023-07-13T10:41:55;26.80;90.20
2621;DHT22;1320;48.128;11.592;2023-07-13T10:44:29;26.80;87.20
2621;DHT22;1320;48.128;11.592;2023-07-13T10:47:05;26.80;87.80
2621;DHT22;1320;48.128;11.592;2023-07-13T10:49:32;26.80;87.30
2621;DHT22;1320;48.128;11.592;2023-07-13T10:51:58;26.90;87.60
2621;DHT22;1320;48.128;11.592;2023-07-13T10:54:32;27.10;88.50
2621;DHT22;1320;48.128;11.592;2023-07-13T10:57:20;27.30;86.80
2621;DHT22;1320;48.128;11.592;2023-07-13T11:02:38;27.50;89.40
2621;DHT22;1320;48.128;11.592;2023-07-13T11:05:33;27.60;89.20
2621;DHT22;1320;48.128;11.592;2023-07-13T11:10:53;27.40;86.40
2621;DHT22;1320;48.128;11.592;2023-07-13T11:13:39;27.10;88.40
2621;DHT22;1320;48.128;11.592;2023-07-13T11:19:37;26.80;89.80
2621;DHT22;1320;48.128;11.592;2023-07-13T11:24:49;26.80;89.80
2621;DHT22;1320;48.128;11.592;2023-07-13T11:30:24;26.90;90.20
2621;DHT22;1320;48.128;11.592;2023-07-13T11:33:23;27.00;90.10
2621;DHT22;1320;48.128;11.592;2023-07-13T11:38:41;26.80;90.00
2621;DHT22;1320;48.128;11.592;2023-07-13T11:41:22;26.70;90.40
2621;DHT22;1320;48.128;11.592;2023-07-13T11:43:53;26.80;90.00
2621;DHT22;1320;48.128;11.592;2023-07-13T11:46:25;26.80;90.80
2621;DHT22;1320;48.128;11.592;2023-07-13T11:48:52;26.70;92.00
2621;DHT22;1320;48.128;11.592;2023-07-13T11:51:23;26.80;91.80
2621;DHT22;1320;48.128;11.592;2023-07-13T11:53:52;26.90;91.50
2621;DHT22;1320;48.128;11.592;2023-07-13T11:56:19;27.20;90.40
2621;DHT22;1320;48.128;11.592;2023-07-13T11:58:49;27.40;89.70
2621;DHT22;1320;48.128;11.592;2023-07-13T12:01:25;27.70;86.80
2621;DHT22;1320;48.128;11.592;2023-07-13T12:03:53;27.90;86.80
2621;DHT22;1320;48.128;11.592;2023-07-13T12:06:29;28.10;86.60
2621;DHT22;1320;48.128;11.592;2023-07-13T12:08:58;28.30;85.50
2621;DHT22;1320;48.128;11.592;2023-07-13T12:11:25;28.30;85.70
2621;DHT22;1320;48.128;11.592;2023-07-13T12:13:51;28.30;84.20
2621;DHT22;1320;48.128;11.592;2023-07-13T12:21:17;28.70;80.60
2621;DHT22;1320;48.128;11.592;2023-07-13T12:23:44;28.70;81.50
2621;DHT22;1320;48.128;11.592;2023-07-13T12:26:12;28.70;82.90
2621;DHT22;1320;48.128;11.592;2023-07-13T12:28:48;28.70;79.20
2621;DHT22;1320;48.128;11.592;2023-07-13T12:34:17;28.50;80.70
2621;DHT22;1320;48.128;11.592;2023-07-13T12:39:50;28.40;81.90
2621;DHT22;1320;48.128;11.592;2023-07-13T12:42:24;28.20;80.90
2621;DHT22;1320;48.128;11.592;2023-07-13T12:47:46;28.00;83.10
2621;DHT22;1320;48.128;11.592;2023-07-13T12:50:24;27.90;83.00
2621;DHT22;1320;48.128;11.592;2023-07-13T12:52:56;27.70;84.20
2621;DHT22;1320;48.128;11.592;2023-07-13T12:55:24;27.50;85.20
2621;DHT22;1320;48.128;11.592;2023-07-13T12:57:56;27.50;85.20
2621;DHT22;1320;48.128;11.592;2023-07-13T13:00:37;27.40;85.80
2621;DHT22;1320;48.128;11.592;2023-07-13T13:03:20;27.50;86.00
2621;DHT22;1320;48.128;11.592;2023-07-13T13:05:47;27.70;85.80
2621;DHT22;1320;48.128;11.592;2023-07-13T13:08:13;28.00;85.30
2621;DHT22;1320;48.128;11.592;2023-07-13T13:10:39;28.20;85.70
2621;DHT22;1320;48.128;11.592;2023-07-13T13:13:04;28.50;82.90
2621;DHT22;1320;48.128;11.592;2023-07-13T13:15:30;28.70;81.00
2621;DHT22;1320;48.128;11.592;2023-07-13T13:17:56;28.80;82.20
2621;DHT22;1320;48.128;11.592;2023-07-13T13:20:24;28.90;81.70
2621;DHT22;1320;48.128;11.592;2023-07-13T13:22:51;29.00;80.50
2621;DHT22;1320;48.128;11.592;2023-07-13T13:25:18;29.10;81.60
2621;DHT22;1320;48.128;11.592;2023-07-13T13:27:45;29.30;83.00
2621;DHT22;1320;48.128;11.592;2023-07-13T13:30:12;29.60;80.30
2621;DHT22;1320;48.128;11.592;2023-07-13T13:32:43;29.60;79.40
2621;DHT22;1320;48.128;11.592;2023-07-13T13:35:19;29.70;78.30
2621;DHT22;1320;48.128;11.592;2023-07-13T13:37:46;29.60;77.80
2621;DHT22;1320;48.128;11.592;2023-07-13T13:40:20;29.50;76.80
2621;DHT22;1320;48.128;11.592;2023-07-13T13:42:48;29.40;76.30
2621;DHT22;1320;48.128;11.592;2023-07-13T13:45:14;29.30;76.40
2621;DHT22;1320;48.128;11.592;2023-07-13T13:47:41;29.10;75.30
2621;DHT22;1320;48.128;11.592;2023-07-13T13:50:15;28.80;76.00
2621;DHT22;1320;48.128;11.592;2023-07-13T13:52:42;28.70;76.70
2621;DHT22;1320;48.128;11.592;2023-07-13T13:55:19;28.40;76.80
2621;DHT22;1320;48.128;11.592;2023-07-13T13:57:46;28.10;77.40
2621;DHT22;1320;48.128;11.592;2023-07-13T14:00:13;27.90;78.80
2621;DHT22;1320;48.128;11.592;2023-07-13T14:02:40;27.80;79.50
2621;DHT22;1320;48.128;11.592;2023-07-13T14:05:09;27.80;79.50
2621;DHT22;1320;48.128;11.592;2023-07-13T14:07:37;27.80;78.80
2621;DHT22;1320;48.128;11.592;2023-07-13T14:10:13;27.80;80.50
2621;DHT22;1320;48.128;11.592;2023-07-13T14:12:44;27.90;80.30
2621;DHT22;1320;48.128;11.592;2023-07-13T14:15:23;28.00;79.10
2621;DHT22;1320;48.128;11.592;2023-07-13T14:17:49;27.90;78.90
2621;DHT22;1320;48.128;11.592;2023-07-13T14:20:20;27.80;80.10
2621;DHT22;1320;48.128;11.592;2023-07-13T14:22:46;27.80;80.10
2621;DHT22;1320;48.128;11.592;2023-07-13T14:25:15;27.80;80.90
2621;DHT22;1320;48.128;11.592;2023-07-13T14:27:42;27.80;79.40
2621;DHT22;1320;48.128;11.592;2023-07-13T14:30:15;28.00;80.80
2621;DHT22;1320;48.128;11.592;2023-07-13T14:32:41;28.30;80.70
2621;DHT22;1320;48.128;11.592;2023-07-13T14:35:11;28.50;77.60
2621;DHT22;1320;48.128;11.592;2023-07-13T14:37:38;28.50;77.80
2621;DHT22;1320;48.128;11.592;2023-07-13T14:40:15;28.60;78.00
2621;DHT22;1320;48.128;11.592;2023-07-13T14:42:42;28.70;78.40
2621;DHT22;1320;48.128;11.592;2023-07-13T14:45:19;28.90;77.90
2621;DHT22;1320;48.128;11.592;2023-07-13T14:47:46;29.10;76.00
2621;DHT22;1320;48.128;11.592;2023-07-13T14:50:21;29.00;75.00
2621;DHT22;1320;48.128;11.592;2023-07-13T14:52:47;28.90;76.00
2621;DHT22;1320;48.128;11.592;2023-07-13T14:55:15;28.90;75.50
2621;DHT22;1320;48.128;11.592;2023-07-13T14:57:41;28.90;76.10
2621;DHT22;1320;48.128;11.592;2023-07-13T15:02:41;29.00;76.20
2621;DHT22;1320;48.128;11.592;2023-07-13T15:05:16;29.10;74.50
2621;DHT22;1320;48.128;11.592;2023-07-13T15:07:42;29.30;74.00
2621;DHT22;1320;48.128;11.592;2023-07-13T15:12:43;29.60;74.60
2621;DHT22;1320;48.128;11.592;2023-07-13T15:15:09;29.90;72.70
2621;DHT22;1320;48.128;11.592;2023-07-13T15:17:46;29.90;73.80
2621;DHT22;1320;48.128;11.592;2023-07-13T15:20:25;30.10;72.90
2621;DHT22;1320;48.128;11.592;2023-07-13T15:22:51;30.30;74.10
2621;DHT22;1320;48.128;11.592;2023-07-13T15:25:20;30.40;73.10
2621;DHT22;1320;48.128;11.592;2023-07-13T15:27:46;30.60;70.50
2621;DHT22;1320;48.128;11.592;2023-07-13T15:30:13;30.70;70.60
2621;DHT22;1320;48.128;11.592;2023-07-13T15:32:40;30.70;70.60
2621;DHT22;1320;48.128;11.592;2023-07-13T15:35:17;30.70;70.60
2621;DHT22;1320;48.128;11.592;2023-07-13T15:37:43;30.80;70.20
2621;DHT22;1320;48.128;11.592;2023-07-13T15:40:10;31.00;70.50
2621;DHT22;1320;48.128;11.592;2023-07-13T15:42:36;31.20;70.00
2621;DHT22;1320;48.128;11.592;2023-07-13T15:45:15;31.40;70.50
2621;DHT22;1320;48.128;11.592;2023-07-13T15:47:42;31.60;68.00
2621;DHT22;1320;48.128;11.592;2023-07-13T15:50:18;31.80;67.70
2621;DHT22;1320;48.128;11.592;2023-07-13T15:52:47;31.80;69.10
2621;DHT22;1320;48.128;11.592;2023-07-13T15:55:13;31.80;67.40
2621;DHT22;1320;48.128;11.592;2023-07-13T15:57:47;31.90;67.60
2621;DHT22;1320;48.128;11.592;2023-07-13T16:02:59;32.10;65.90
2621;DHT22;1320;48.128;11.592;2023-07-13T16:05:25;32.10;66.70
2621;DHT22;1320;48.128;11.592;2023-07-13T16:07:51;32.20;66.50
2621;DHT22;1320;48.128;11.592;2023-07-13T16:10:22;32.20;65.30
2621;DHT22;1320;48.128;11.592;2023-07-13T16:12:50;32.20;66.10
2621;DHT22;1320;48.128;11.592;2023-07-13T16:15:18;32.30;67.40
2621;DHT22;1320;48.128;11.592;2023-07-13T16:17:48;32.30;66.20
2621;DHT22;1320;48.128;11.592;2023-07-13T16:20:15;32.50;65.50
2621;DHT22;1320;48.128;11.592;2023-07-13T16:22:44;32.40;64.90
2621;DHT22;1320;48.128;11.592;2023-07-13T16:25:21;32.40;65.70
2621;DHT22;1320;48.128;11.592;2023-07-13T16:27:49;32.30;65.70
2621;DHT22;1320;48.128;11.592;2023-07-13T16:30:21;32.30;65.60
2621;DHT22;1320;48.128;11.592;2023-07-13T16:32:48;32.30;65.50
2621;DHT22;1320;48.128;11.592;2023-07-13T16:35:20;32.10;66.40
2621;DHT22;1320;48.128;11.592;2023-07-13T16:37:46;32.10;66.50
2621;DHT22;1320;48.128;11.592;2023-07-13T16:40:20;31.90;66.60
2621;DHT22;1320;48.128;11.592;2023-07-13T16:42:48;31.80;66.60
2621;DHT22;1320;48.128;11.592;2023-07-13T16:45:13;31.80;67.40
2621;DHT22;1320;48.128;11.592;2023-07-13T16:47:41;31.90;67.10
2621;DHT22;1320;48.128;11.592;2023-07-13T16:50:32;32.00;66.60
2621;DHT22;1320;48.128;11.592;2023-07-13T16:52:58;32.30;66.70